Terminal Aerodrome Forecast
Issued by NWS Tulsa, OK

Home | Current Version | Previous Version | Text Only | Print | Product List | Glossary On
Versions: 1 2 3 4 5 6 7 8 9 10 11 12 13 14 15 16 17 18 19 20 21 22 23
000
FTUS44 KTSA 261100
TAFFSM
TAF
KFSM 261120Z 2612/2712 26008KT P6SM BKN027
     FM261400 25007KT P6SM SKC
     FM270000 27004KT P6SM SKC=

USA.gov is the U.S. government's official web portal to all federal, state and local government web resources and services.